Time;durP1;ratioP1;P1;durP2;ratioP2;P2;SDS_P1;SDS_P2;PMS_P1;PMS_P2;Temp;Humidity;BMP_temperature;BMP_pressure;BME280_temperature;BME280_humidity;BME280_pressure;Samples;Min_cycle;Max_cycle;Signal;HPM_P1;HPM_P2
2023/04/24 00:00:14;;;;;;;1.42;1.17;;;;;;;;;;6252826;28;20047;-81
2023/04/24 00:03:16;;;;;;;1.80;1.30;;;;;;;;;;6247619;28;20163;-78
2023/04/24 00:06:18;;;;;;;1.20;1.10;;;;;;;;;;6252064;28;20052;-81
2023/04/24 00:09:20;;;;;;;2.17;1.30;;;;;;;;;;6247722;28;20051;-80
2023/04/24 00:12:21;;;;;;;1.60;1.10;;;;;;;;;;6230946;28;20061;-80
2023/04/24 00:15:23;;;;;;;3.40;1.30;;;;;;;;;;6233319;28;20045;-80
2023/04/24 00:18:25;;;;;;;2.22;1.52;;;;;;;;;;6208544;28;20555;-81
2023/04/24 00:21:26;;;;;;;2.95;1.20;;;;;;;;;;6215158;28;20046;-81
2023/04/24 00:24:28;;;;;;;4.18;1.20;;;;;;;;;;6242634;28;20105;-80
2023/04/24 00:27:29;;;;;;;1.30;1.17;;;;;;;;;;6255781;28;20056;-79
2023/04/24 00:30:31;;;;;;;3.70;1.20;;;;;;;;;;6256489;28;20519;-81
2023/04/24 00:33:33;;;;;;;1.63;1.20;;;;;;;;;;6243896;28;20690;-80
2023/04/24 00:36:35;;;;;;;1.48;1.25;;;;;;;;;;6239243;28;20390;-81
2023/04/24 00:39:36;;;;;;;3.50;1.50;;;;;;;;;;6239942;28;20396;-80
2023/04/24 00:42:40;;;;;;;1.90;1.23;;;;;;;;;;6240397;28;20079;-80
2023/04/24 00:45:41;;;;;;;;;;;;;;;;;;6259997;28;20055;-80
2023/04/24 00:48:43;;;;;;;3.55;1.58;;;;;;;;;;6244962;28;20004;-81
2023/04/24 00:51:45;;;;;;;1.92;1.33;;;;;;;;;;6244951;28;20118;-80
2023/04/24 00:54:47;;;;;;;3.55;2.08;;;;;;;;;;6240902;28;20061;-80
2023/04/24 00:57:49;;;;;;;1.95;1.50;;;;;;;;;;6241121;28;20069;-81
2023/04/24 01:00:52;;;;;;;1.48;1.33;;;;;;;;;;6236373;28;20046;-78
2023/04/24 01:03:55;;;;;;;2.90;1.40;;;;;;;;;;6242668;28;20044;-80
2023/04/24 01:06:57;;;;;;;2.15;1.40;;;;;;;;;;6242622;28;20053;-80
2023/04/24 01:09:59;;;;;;;1.88;1.50;;;;;;;;;;6256356;28;20041;-80
2023/04/24 01:13:01;;;;;;;2.45;1.48;;;;;;;;;;6257228;28;20151;-81
2023/04/24 01:16:03;;;;;;;2.78;1.08;;;;;;;;;;6240222;28;20041;-80
2023/04/24 01:19:06;;;;;;;1.42;1.20;;;;;;;;;;6234266;28;20041;-80
2023/04/24 01:22:11;;;;;;;2.53;1.25;;;;;;;;;;6241468;28;20111;-80
2023/04/24 01:25:13;;;;;;;3.78;1.50;;;;;;;;;;6227887;28;20087;-79
2023/04/24 01:28:15;;;;;;;2.53;1.35;;;;;;;;;;6239824;28;20053;-79
2023/04/24 01:31:17;;;;;;;1.83;1.27;;;;;;;;;;6244670;28;20037;-79
2023/04/24 01:34:19;;;;;;;3.40;1.23;;;;;;;;;;6254312;28;20071;-79
2023/04/24 01:37:20;;;;;;;2.00;1.10;;;;;;;;;;6229596;28;20924;-79
2023/04/24 01:40:23;;;;;;;2.45;1.38;;;;;;;;;;6233168;28;20095;-81
2023/04/24 01:43:25;;;;;;;2.00;1.10;;;;;;;;;;6239988;28;20045;-80
2023/04/24 01:46:26;;;;;;;1.70;1.45;;;;;;;;;;6233880;28;20050;-80
2023/04/24 01:49:29;;;;;;;3.53;1.35;;;;;;;;;;6235518;28;20118;-79
2023/04/24 01:52:33;;;;;;;1.95;1.40;;;;;;;;;;6233172;28;20095;-78
2023/04/24 01:55:34;;;;;;;1.73;1.45;;;;;;;;;;6230355;28;20054;-79
2023/04/24 01:58:36;;;;;;;2.33;1.55;;;;;;;;;;6237415;28;20049;-78
2023/04/24 02:01:38;;;;;;;6.30;2.00;;;;;;;;;;6231646;28;20053;-80
2023/04/24 02:04:40;;;;;;;3.25;1.50;;;;;;;;;;6218681;28;20176;-80
2023/04/24 02:07:42;;;;;;;2.95;1.80;;;;;;;;;;6235226;28;20043;-80
2023/04/24 02:10:44;;;;;;;4.38;1.55;;;;;;;;;;6250105;28;20455;-79
2023/04/24 02:13:45;;;;;;;1.98;1.73;;;;;;;;;;6214752;28;20047;-80
2023/04/24 02:16:47;;;;;;;3.58;1.90;;;;;;;;;;6237205;28;20136;-80
2023/04/24 02:19:49;;;;;;;2.42;1.80;;;;;;;;;;6238391;28;20179;-80
2023/04/24 02:22:51;;;;;;;2.22;1.90;;;;;;;;;;6231843;28;20175;-80
2023/04/24 02:25:53;;;;;;;2.42;1.75;;;;;;;;;;6255390;28;20041;-80
2023/04/24 02:28:55;;;;;;;2.78;2.08;;;;;;;;;;6241369;28;20549;-80
2023/04/24 02:31:56;;;;;;;2.33;1.73;;;;;;;;;;6238190;28;20091;-80
2023/04/24 02:34:59;;;;;;;2.10;1.90;;;;;;;;;;6236388;28;20042;-81
2023/04/24 02:38:01;;;;;;;2.28;1.80;;;;;;;;;;6252610;28;20072;-80
2023/04/24 02:41:05;;;;;;;2.45;1.85;;;;;;;;;;6253919;28;20041;-80
2023/04/24 02:44:07;;;;;;;3.00;2.00;;;;;;;;;;6222761;28;20084;-80
2023/04/24 02:47:09;;;;;;;3.38;2.08;;;;;;;;;;6236877;28;20091;-80
2023/04/24 02:50:10;;;;;;;2.50;2.20;;;;;;;;;;6258821;28;20052;-81
2023/04/24 02:53:12;;;;;;;2.50;1.85;;;;;;;;;;6242661;28;20058;-80
2023/04/24 02:56:14;;;;;;;2.40;2.00;;;;;;;;;;6236799;28;20056;-80
2023/04/24 02:59:16;;;;;;;1.90;1.67;;;;;;;;;;6250782;28;20049;-81
2023/04/24 03:02:18;;;;;;;2.55;2.00;;;;;;;;;;6243119;28;20111;-81
2023/04/24 03:05:19;;;;;;;2.38;1.70;;;;;;;;;;6263738;28;20522;-81
2023/04/24 03:08:21;;;;;;;3.00;1.85;;;;;;;;;;6263696;28;20091;-80
2023/04/24 03:11:23;;;;;;;2.53;1.73;;;;;;;;;;6266015;28;20116;-81
2023/04/24 03:14:24;;;;;;;2.85;1.60;;;;;;;;;;6248463;28;20055;-81
2023/04/24 03:17:26;;;;;;;2.65;1.60;;;;;;;;;;6231917;28;20099;-80
2023/04/24 03:20:28;;;;;;;2.15;1.70;;;;;;;;;;6242074;28;21028;-81
2023/04/24 03:23:31;;;;;;;1.50;1.40;;;;;;;;;;6250249;28;20438;-81
2023/04/24 03:26:33;;;;;;;2.17;1.80;;;;;;;;;;6219281;28;20071;-81
2023/04/24 03:29:53;;;;;;;3.60;1.80;;;;;;;;;;6234250;28;20143;-81
2023/04/24 03:32:55;;;;;;;4.07;1.58;;;;;;;;;;6237061;28;20164;-81
2023/04/24 03:36:01;;;;;;;1.58;1.38;;;;;;;;;;6249175;28;20049;-80
2023/04/24 03:39:11;;;;;;;1.48;1.30;;;;;;;;;;6234694;28;20336;-81
2023/04/24 03:42:19;;;;;;;2.72;1.40;;;;;;;;;;6234867;28;20570;-79
2023/04/24 03:45:26;;;;;;;2.45;1.60;;;;;;;;;;6216887;28;20103;-79
2023/04/24 03:48:27;;;;;;;2.70;1.38;;;;;;;;;;6236749;28;20159;-80
2023/04/24 03:51:30;;;;;;;2.25;1.40;;;;;;;;;;6210445;28;20050;-80
2023/04/24 03:54:42;;;;;;;2.63;1.38;;;;;;;;;;6212706;28;20053;-79
2023/04/24 03:57:45;;;;;;;1.60;1.40;;;;;;;;;;6222194;28;20198;-79
2023/04/24 04:00:56;;;;;;;4.05;1.30;;;;;;;;;;6224775;28;20129;-79
2023/04/24 04:04:17;;;;;;;2.58;1.52;;;;;;;;;;6206930;28;20050;-79
2023/04/24 04:07:19;;;;;;;1.63;1.27;;;;;;;;;;6234133;28;20108;-81
2023/04/24 04:10:21;;;;;;;1.50;1.40;;;;;;;;;;6234206;28;20037;-80
2023/04/24 04:13:23;;;;;;;4.38;1.73;;;;;;;;;;6235850;28;20045;-81
2023/04/24 04:16:25;;;;;;;1.88;1.60;;;;;;;;;;6232891;28;20072;-80
2023/04/24 04:19:32;;;;;;;2.95;1.88;;;;;;;;;;6239552;28;20049;-80
2023/04/24 04:22:34;;;;;;;2.45;1.48;;;;;;;;;;6209739;28;20038;-80
2023/04/24 04:25:41;;;;;;;2.22;1.60;;;;;;;;;;6219436;28;20042;-80
2023/04/24 04:28:44;;;;;;;3.58;1.80;;;;;;;;;;6222986;28;20049;-78
2023/04/24 04:31:46;;;;;;;;;;;;;;;;;;6246471;28;20299;-79
2023/04/24 04:34:49;;;;;;;2.10;1.73;;;;;;;;;;6250441;28;19921;-80
2023/04/24 04:37:51;;;;;;;4.50;2.10;;;;;;;;;;6232591;28;20045;-79
2023/04/24 04:41:18;;;;;;;3.75;2.00;;;;;;;;;;6229040;28;20507;-80
2023/04/24 04:44:20;;;;;;;2.33;2.10;;;;;;;;;;6228816;28;20048;-79
2023/04/24 04:47:26;;;;;;;2.67;2.00;;;;;;;;;;6230781;28;20064;-80
2023/04/24 04:50:30;;;;;;;4.65;2.38;;;;;;;;;;6231623;28;20046;-78
2023/04/24 04:53:37;;;;;;;3.50;2.20;;;;;;;;;;6246083;28;20073;-79
2023/04/24 04:56:39;;;;;;;3.40;2.30;;;;;;;;;;6226660;28;20054;-80
2023/04/24 04:59:41;;;;;;;3.65;2.45;;;;;;;;;;6231495;28;20045;-80
2023/04/24 05:02:49;;;;;;;4.20;2.35;;;;;;;;;;6217790;28;20057;-80
2023/04/24 05:05:51;;;;;;;4.03;2.88;;;;;;;;;;6213840;28;20054;-79
2023/04/24 05:08:56;;;;;;;3.47;2.50;;;;;;;;;;6214332;28;20312;-80
2023/04/24 05:12:19;;;;;;;4.90;2.65;;;;;;;;;;6218187;28;20042;-79
2023/04/24 05:15:25;;;;;;;4.50;2.70;;;;;;;;;;6208268;28;20100;-79
2023/04/24 05:18:27;;;;;;;5.13;2.88;;;;;;;;;;6236372;28;20084;-79
2023/04/24 05:21:30;;;;;;;4.10;2.88;;;;;;;;;;6220031;28;20629;-80
2023/04/24 05:24:35;;;;;;;6.47;3.38;;;;;;;;;;6211764;28;20073;-79
2023/04/24 05:27:55;;;;;;;5.03;3.53;;;;;;;;;;6211658;28;20129;-79
2023/04/24 05:30:59;;;;;;;4.95;3.38;;;;;;;;;;6212052;28;20177;-79
2023/04/24 05:34:00;;;;;;;;;;;;;;;;;;6213479;28;20122;-80
2023/04/24 05:37:07;;;;;;;5.90;3.25;;;;;;;;;;6226081;28;19936;-79
2023/04/24 05:40:10;;;;;;;4.95;3.03;;;;;;;;;;6231662;28;20046;-79
2023/04/24 05:43:12;;;;;;;4.27;2.90;;;;;;;;;;6236795;28;20041;-79
2023/04/24 05:46:14;;;;;;;4.68;3.38;;;;;;;;;;6207785;28;20091;-79
2023/04/24 05:49:16;;;;;;;6.35;3.30;;;;;;;;;;6223237;28;20064;-78
2023/04/24 05:52:19;;;;;;;5.70;3.28;;;;;;;;;;6237700;28;20530;-79
2023/04/24 05:55:23;;;;;;;4.60;3.28;;;;;;;;;;6234693;28;20099;-80
2023/04/24 05:58:25;;;;;;;4.18;2.97;;;;;;;;;;6219366;28;20041;-80
2023/04/24 06:01:28;;;;;;;4.18;2.88;;;;;;;;;;6255064;28;20397;-78
2023/04/24 06:04:40;;;;;;;6.10;3.17;;;;;;;;;;6220964;28;20537;-80
2023/04/24 06:07:42;;;;;;;5.30;2.88;;;;;;;;;;6221671;28;20042;-79
2023/04/24 06:10:44;;;;;;;4.95;3.15;;;;;;;;;;6234089;28;20049;-79
2023/04/24 06:13:46;;;;;;;4.88;3.45;;;;;;;;;;6231234;28;20051;-79
2023/04/24 06:17:06;;;;;;;5.70;3.17;;;;;;;;;;6236906;28;20045;-78
2023/04/24 06:20:12;;;;;;;5.95;3.50;;;;;;;;;;6234037;28;20057;-79
2023/04/24 06:23:14;;;;;;;4.97;3.38;;;;;;;;;;6228341;28;20052;-80
2023/04/24 06:26:16;;;;;;;5.28;3.47;;;;;;;;;;6233958;28;20041;-80
2023/04/24 06:29:18;;;;;;;6.53;3.47;;;;;;;;;;6207301;28;20125;-80
2023/04/24 06:32:24;;;;;;;7.15;3.35;;;;;;;;;;6243958;28;20069;-80
2023/04/24 06:35:26;;;;;;;4.72;3.53;;;;;;;;;;6216782;28;20042;-79
2023/04/24 06:38:29;;;;;;;6.82;3.75;;;;;;;;;;6231898;28;20136;-79
2023/04/24 06:41:31;;;;;;;5.80;3.45;;;;;;;;;;6232254;28;20119;-80
2023/04/24 06:44:37;;;;;;;7.32;3.72;;;;;;;;;;6231138;28;20055;-80
2023/04/24 06:47:39;;;;;;;5.30;3.63;;;;;;;;;;6234385;28;20041;-81
2023/04/24 06:50:41;;;;;;;4.80;3.38;;;;;;;;;;6234108;28;20049;-79
2023/04/24 06:53:43;;;;;;;4.50;3.13;;;;;;;;;;6233273;28;20387;-80
2023/04/24 06:56:47;;;;;;;6.57;4.05;;;;;;;;;;6233980;28;20057;-80
2023/04/24 06:59:48;;;;;;;5.38;3.50;;;;;;;;;;6246662;28;20041;-80
2023/04/24 07:02:50;;;;;;;5.22;3.65;;;;;;;;;;6229675;28;20046;-80
2023/04/24 07:05:53;;;;;;;5.82;3.83;;;;;;;;;;6210833;28;20137;-79
2023/04/24 07:08:55;;;;;;;7.95;3.67;;;;;;;;;;6216626;28;20069;-79
2023/04/24 07:11:57;;;;;;;4.30;3.30;;;;;;;;;;6209927;28;20049;-81
2023/04/24 07:15:00;;;;;;;7.55;3.50;;;;;;;;;;6211133;28;20120;-81
2023/04/24 07:18:05;;;;;;;6.53;4.30;;;;;;;;;;6229881;28;20043;-80
2023/04/24 07:21:07;;;;;;;6.43;3.75;;;;;;;;;;6231572;28;20049;-80
2023/04/24 07:24:10;;;;;;;6.15;3.92;;;;;;;;;;6233791;28;20039;-78
2023/04/24 07:27:14;;;;;;;6.30;4.47;;;;;;;;;;6212048;28;20049;-79
2023/04/24 07:30:16;;;;;;;5.80;3.80;;;;;;;;;;6232936;28;20049;-79
2023/04/24 07:33:18;;;;;;;6.50;4.00;;;;;;;;;;6229041;28;20475;-80
2023/04/24 07:36:20;;;;;;;6.75;4.70;;;;;;;;;;6231998;28;20679;-80
2023/04/24 07:39:22;;;;;;;5.35;3.90;;;;;;;;;;6245378;28;20041;-79
2023/04/24 07:42:24;;;;;;;7.43;4.13;;;;;;;;;;6233894;28;20155;-80
2023/04/24 07:45:27;;;;;;;10.02;4.82;;;;;;;;;;6233680;28;20045;-80
2023/04/24 07:48:29;;;;;;;5.10;4.10;;;;;;;;;;6232472;28;20049;-79
2023/04/24 07:51:33;;;;;;;5.28;3.75;;;;;;;;;;6228557;28;20098;-79
2023/04/24 07:54:36;;;;;;;8.27;4.25;;;;;;;;;;6244097;28;20136;-80
2023/04/24 07:57:38;;;;;;;5.95;4.55;;;;;;;;;;6228255;28;20452;-79
2023/04/24 08:00:40;;;;;;;6.43;4.53;;;;;;;;;;6209559;28;20061;-80
2023/04/24 08:03:42;;;;;;;6.47;4.10;;;;;;;;;;6228025;28;20569;-79
2023/04/24 08:06:44;;;;;;;6.45;4.15;;;;;;;;;;6245456;28;20522;-79
2023/04/24 08:09:46;;;;;;;6.32;4.00;;;;;;;;;;6212977;28;20052;-81
2023/04/24 08:12:48;;;;;;;5.57;3.80;;;;;;;;;;6247348;28;20583;-81
2023/04/24 08:15:50;;;;;;;7.22;4.70;;;;;;;;;;6236894;28;20121;-79
2023/04/24 08:18:53;;;;;;;6.10;4.50;;;;;;;;;;6234680;28;20419;-79
2023/04/24 08:21:55;;;;;;;6.70;4.32;;;;;;;;;;6236341;28;20050;-80
2023/04/24 08:24:57;;;;;;;6.68;4.10;;;;;;;;;;6236883;28;20462;-80
2023/04/24 08:27:58;;;;;;;6.25;3.97;;;;;;;;;;6236249;28;20128;-79
2023/04/24 08:31:00;;;;;;;6.43;3.92;;;;;;;;;;6248410;28;20049;-79
2023/04/24 08:34:02;;;;;;;4.82;3.47;;;;;;;;;;6235016;28;20124;-80
2023/04/24 08:37:03;;;;;;;4.78;3.58;;;;;;;;;;6233775;28;20060;-79
2023/04/24 08:40:14;;;;;;;6.40;3.47;;;;;;;;;;6250898;28;20139;-79
2023/04/24 08:43:16;;;;;;;5.20;3.35;;;;;;;;;;6235991;28;20046;-80
2023/04/24 08:46:20;;;;;;;5.65;3.53;;;;;;;;;;6245166;28;20507;-79
2023/04/24 08:49:25;;;;;;;4.72;3.00;;;;;;;;;;6240670;28;20042;-80
2023/04/24 08:52:28;;;;;;;5.63;2.95;;;;;;;;;;6235862;28;20045;-79
2023/04/24 08:55:30;;;;;;;3.72;2.97;;;;;;;;;;6236104;28;20044;-80
2023/04/24 08:58:33;;;;;;;3.83;2.10;;;;;;;;;;6237187;28;20072;-78
2023/04/24 09:01:37;;;;;;;3.55;2.63;;;;;;;;;;6243231;28;20567;-78
2023/04/24 09:04:40;;;;;;;2.90;2.08;;;;;;;;;;6240802;28;20414;-79
2023/04/24 09:07:53;;;;;;;2.97;2.00;;;;;;;;;;6236090;28;20094;-79
2023/04/24 09:10:54;;;;;;;2.35;1.92;;;;;;;;;;6235507;28;20426;-78
2023/04/24 09:13:57;;;;;;;2.38;1.92;;;;;;;;;;6252287;28;20142;-79
2023/04/24 09:16:59;;;;;;;2.55;2.10;;;;;;;;;;6245391;28;20070;-77
2023/04/24 09:20:02;;;;;;;2.17;1.80;;;;;;;;;;6218589;28;20038;-77
2023/04/24 09:23:06;;;;;;;2.67;2.07;;;;;;;;;;6235332;28;20080;-77
2023/04/24 09:26:09;;;;;;;3.55;2.20;;;;;;;;;;6228112;28;20050;-77
2023/04/24 09:29:16;;;;;;;3.78;2.20;;;;;;;;;;6234052;28;20046;-78
2023/04/24 09:32:21;;;;;;;2.63;1.65;;;;;;;;;;6231417;28;20140;-77
2023/04/24 09:35:23;;;;;;;2.58;1.88;;;;;;;;;;6231279;28;20049;-78
2023/04/24 09:38:38;;;;;;;2.67;1.80;;;;;;;;;;6245833;28;20044;-78
2023/04/24 09:41:48;;;;;;;3.60;1.50;;;;;;;;;;6235059;28;20138;-77
2023/04/24 09:44:52;;;;;;;2.20;1.35;;;;;;;;;;6230708;28;20046;-77
2023/04/24 09:48:08;;;;;;;1.42;1.10;;;;;;;;;;6233848;28;20060;-77
2023/04/24 09:51:12;;;;;;;1.90;0.98;;;;;;;;;;6209828;28;20053;-78
2023/04/24 09:54:17;;;;;;;1.30;1.00;;;;;;;;;;6233224;28;20060;-79
2023/04/24 09:57:19;;;;;;;1.15;0.90;;;;;;;;;;6255719;28;20513;-78
2023/04/24 10:00:29;;;;;;;1.27;0.70;;;;;;;;;;6234629;28;20136;-77
2023/04/24 10:03:32;;;;;;;1.10;0.77;;;;;;;;;;6236756;28;20387;-78
2023/04/24 10:06:34;;;;;;;;;;;;;;;;;;6238941;28;20526;-77
2023/04/24 10:09:36;;;;;;;2.45;0.73;;;;;;;;;;6233595;28;19928;-77
2023/04/24 10:12:39;;;;;;;0.30;0.30;;;;;;;;;;6233641;28;20049;-77
2023/04/24 10:15:41;;;;;;;0.47;0.47;;;;;;;;;;6235928;28;20503;-77
2023/04/24 10:18:44;;;;;;;0.40;0.30;;;;;;;;;;6204103;28;20081;-78
2023/04/24 10:21:46;;;;;;;0.50;0.30;;;;;;;;;;6231129;28;20052;-78
2023/04/24 10:24:50;;;;;;;1.13;0.30;;;;;;;;;;6214080;28;20049;-77
2023/04/24 10:27:52;;;;;;;0.30;0.30;;;;;;;;;;6240243;28;20171;-77
2023/04/24 10:30:55;;;;;;;0.30;0.30;;;;;;;;;;6247911;28;20056;-77
2023/04/24 10:33:59;;;;;;;0.30;0.30;;;;;;;;;;6247127;28;20053;-76
2023/04/24 10:37:02;;;;;;;0.20;0.20;;;;;;;;;;6253331;28;20545;-77
2023/04/24 10:40:05;;;;;;;0.30;0.30;;;;;;;;;;6252203;28;20048;-77
2023/04/24 10:43:11;;;;;;;0.28;0.22;;;;;;;;;;6230853;28;20053;-77
2023/04/24 10:46:21;;;;;;;0.30;0.30;;;;;;;;;;6232974;28;20049;-78
2023/04/24 10:49:31;;;;;;;0.45;0.38;;;;;;;;;;6238177;28;20048;-76
2023/04/24 10:52:46;;;;;;;0.25;0.25;;;;;;;;;;6230930;28;20045;-77
2023/04/24 10:55:51;;;;;;;1.40;0.40;;;;;;;;;;6235283;28;20045;-77
2023/04/24 10:58:53;;;;;;;0.50;0.45;;;;;;;;;;6225883;28;20053;-78
2023/04/24 11:01:55;;;;;;;0.20;0.20;;;;;;;;;;6230803;28;20072;-77
2023/04/24 11:04:57;;;;;;;0.50;0.50;;;;;;;;;;6242366;28;20164;-77
2023/04/24 11:08:21;;;;;;;0.20;0.20;;;;;;;;;;6227275;28;20659;-79
2023/04/24 11:11:28;;;;;;;;;;;;;;;;;;6222551;28;20085;-78
2023/04/24 11:14:29;;;;;;;0.45;0.40;;;;;;;;;;6231564;28;19944;-78
2023/04/24 11:17:33;;;;;;;0.50;0.45;;;;;;;;;;6227695;28;20080;-78
2023/04/24 11:20:41;;;;;;;0.40;0.30;;;;;;;;;;6229730;28;20176;-78
2023/04/24 11:23:44;;;;;;;0.30;0.30;;;;;;;;;;6232086;28;20053;-78
2023/04/24 11:26:45;;;;;;;1.05;0.50;;;;;;;;;;6225129;28;20037;-77
2023/04/24 11:29:56;;;;;;;0.40;0.40;;;;;;;;;;6230138;28;20183;-77
2023/04/24 11:33:04;;;;;;;0.88;0.50;;;;;;;;;;6237426;28;20048;-77
2023/04/24 11:36:07;;;;;;;0.50;0.50;;;;;;;;;;6229419;28;20470;-79
2023/04/24 11:39:10;;;;;;;0.47;0.40;;;;;;;;;;6222052;28;20053;-77
2023/04/24 11:42:14;;;;;;;;;;;;;;;;;;6230461;28;20052;-77
2023/04/24 11:45:23;;;;;;;0.70;0.70;;;;;;;;;;6232558;28;19924;-77
2023/04/24 11:48:25;;;;;;;0.50;0.45;;;;;;;;;;6246829;28;20049;-77
2023/04/24 11:51:27;;;;;;;0.65;0.45;;;;;;;;;;6245649;28;20131;-77
2023/04/24 11:54:36;;;;;;;0.95;0.50;;;;;;;;;;6235438;28;20091;-76
2023/04/24 11:57:38;;;;;;;1.17;0.52;;;;;;;;;;6230060;28;20435;-77
2023/04/24 12:00:40;;;;;;;0.65;0.57;;;;;;;;;;6243081;28;20048;-77
2023/04/24 12:03:46;;;;;;;1.40;0.80;;;;;;;;;;6232145;28;20415;-77
2023/04/24 12:07:09;;;;;;;0.80;0.60;;;;;;;;;;6230903;28;20111;-77
2023/04/24 12:10:11;;;;;;;0.80;0.70;;;;;;;;;;6226342;28;20740;-76
2023/04/24 12:13:13;;;;;;;1.20;0.93;;;;;;;;;;6226480;28;20511;-77
2023/04/24 12:16:14;;;;;;;1.13;0.93;;;;;;;;;;6237286;28;20127;-76
2023/04/24 12:19:23;;;;;;;1.50;0.82;;;;;;;;;;6226574;28;20529;-77
2023/04/24 12:22:25;;;;;;;2.03;1.25;;;;;;;;;;6224635;28;20045;-77
2023/04/24 12:25:29;;;;;;;2.10;1.02;;;;;;;;;;6245938;28;20139;-77
2023/04/24 12:28:38;;;;;;;2.35;1.17;;;;;;;;;;6237447;28;20052;-77
2023/04/24 12:31:40;;;;;;;1.27;1.17;;;;;;;;;;6223849;28;20136;-78
2023/04/24 12:34:43;;;;;;;3.45;1.50;;;;;;;;;;6226486;28;20060;-76
2023/04/24 12:37:45;;;;;;;3.65;1.80;;;;;;;;;;6241706;28;20523;-77
2023/04/24 12:41:00;;;;;;;2.25;1.45;;;;;;;;;;6230605;28;20092;-77
2023/04/24 12:44:02;;;;;;;3.03;1.50;;;;;;;;;;6223284;28;20042;-77
2023/04/24 12:47:04;;;;;;;4.00;1.92;;;;;;;;;;6229111;28;20046;-78
2023/04/24 12:50:07;;;;;;;2.28;1.98;;;;;;;;;;6233389;28;20049;-79
2023/04/24 12:53:09;;;;;;;3.67;1.92;;;;;;;;;;6232620;28;20045;-79
2023/04/24 12:56:11;;;;;;;2.70;2.03;;;;;;;;;;6230315;28;20052;-77
2023/04/24 12:59:13;;;;;;;2.10;1.90;;;;;;;;;;6227634;28;20112;-79
2023/04/24 13:02:18;;;;;;;3.75;1.88;;;;;;;;;;6231080;28;20049;-78
2023/04/24 13:05:20;;;;;;;4.53;2.50;;;;;;;;;;6215622;28;20511;-78
2023/04/24 13:08:25;;;;;;;2.75;1.98;;;;;;;;;;6228998;28;20057;-78
2023/04/24 13:11:27;;;;;;;4.78;2.33;;;;;;;;;;6233217;28;20047;-79
2023/04/24 13:14:29;;;;;;;3.20;2.33;;;;;;;;;;6217730;28;20042;-78
2023/04/24 13:17:30;;;;;;;3.20;2.58;;;;;;;;;;6232665;28;20034;-78
2023/04/24 13:20:32;;;;;;;4.63;2.60;;;;;;;;;;6227554;28;20057;-78
2023/04/24 13:23:34;;;;;;;3.85;2.25;;;;;;;;;;6230674;28;20124;-78
2023/04/24 13:26:36;;;;;;;4.80;2.58;;;;;;;;;;6245770;28;20061;-79
2023/04/24 13:29:37;;;;;;;5.63;3.42;;;;;;;;;;6247719;28;20113;-78
2023/04/24 13:32:39;;;;;;;5.82;2.97;;;;;;;;;;6239738;28;20076;-78
2023/04/24 13:35:41;;;;;;;6.85;3.10;;;;;;;;;;6235641;28;20081;-79
2023/04/24 13:38:44;;;;;;;4.13;3.20;;;;;;;;;;6233575;28;20041;-78
2023/04/24 13:41:47;;;;;;;5.35;3.60;;;;;;;;;;6231680;28;20095;-79
2023/04/24 13:44:50;;;;;;;5.85;2.95;;;;;;;;;;6237528;28;20046;-79
2023/04/24 13:47:53;;;;;;;5.85;2.70;;;;;;;;;;6232959;28;20128;-78
2023/04/24 13:50:55;;;;;;;;;;;;;;;;;;6232930;28;20136;-77
2023/04/24 13:53:57;;;;;;;5.28;2.80;;;;;;;;;;6237771;28;20014;-77
2023/04/24 13:57:00;;;;;;;3.35;2.65;;;;;;;;;;6236438;28;20094;-77
2023/04/24 14:00:03;;;;;;;5.13;2.65;;;;;;;;;;6231947;28;20053;-78
2023/04/24 14:03:07;;;;;;;3.70;2.40;;;;;;;;;;6232693;28;20557;-79
2023/04/24 14:06:10;;;;;;;5.63;3.13;;;;;;;;;;6231253;28;20547;-78
2023/04/24 14:09:12;;;;;;;3.53;2.60;;;;;;;;;;6232410;28;20183;-78
2023/04/24 14:12:16;;;;;;;5.10;3.08;;;;;;;;;;6242722;28;20051;-79
2023/04/24 14:15:18;;;;;;;6.15;3.05;;;;;;;;;;6232211;28;20132;-79
2023/04/24 14:18:20;;;;;;;5.85;2.63;;;;;;;;;;6220654;28;20495;-79
2023/04/24 14:21:21;;;;;;;5.95;3.30;;;;;;;;;;6231065;28;20072;-77
2023/04/24 14:24:23;;;;;;;6.50;3.20;;;;;;;;;;6235211;28;20046;-77
2023/04/24 14:27:26;;;;;;;5.93;3.17;;;;;;;;;;6228035;28;20047;-79
2023/04/24 14:30:27;;;;;;;6.03;3.00;;;;;;;;;;6230917;28;20061;-79
2023/04/24 14:33:29;;;;;;;6.03;3.10;;;;;;;;;;6235907;28;20052;-78
2023/04/24 14:36:31;;;;;;;4.80;2.95;;;;;;;;;;6234462;28;20072;-79
2023/04/24 14:39:33;;;;;;;4.90;3.13;;;;;;;;;;6238922;28;20045;-80
2023/04/24 14:42:35;;;;;;;6.28;3.05;;;;;;;;;;6235438;28;20037;-80
2023/04/24 14:45:37;;;;;;;5.45;3.10;;;;;;;;;;6251925;28;20067;-81
2023/04/24 14:48:41;;;;;;;7.32;4.10;;;;;;;;;;6232583;28;20545;-80
2023/04/24 14:51:43;;;;;;;9.00;4.10;;;;;;;;;;6231425;28;20065;-80
2023/04/24 14:54:45;;;;;;;9.52;4.68;;;;;;;;;;6238493;28;20045;-79
2023/04/24 14:57:47;;;;;;;4.05;2.63;;;;;;;;;;6236074;28;20049;-80
2023/04/24 15:00:51;;;;;;;4.20;2.45;;;;;;;;;;6236093;28;20131;-79
2023/04/24 15:03:53;;;;;;;3.42;2.30;;;;;;;;;;6249871;28;20134;-80
2023/04/24 15:06:55;;;;;;;3.50;2.10;;;;;;;;;;6234254;28;20049;-80
2023/04/24 15:09:57;;;;;;;3.60;2.30;;;;;;;;;;6229100;28;20338;-77
2023/04/24 15:12:58;;;;;;;4.15;2.50;;;;;;;;;;6233506;28;20041;-79
2023/04/24 15:16:00;;;;;;;5.53;2.50;;;;;;;;;;6228183;28;20060;-79
2023/04/24 15:19:02;;;;;;;3.55;2.72;;;;;;;;;;6230871;28;20797;-79
2023/04/24 15:22:04;;;;;;;7.53;3.47;;;;;;;;;;6228463;28;20050;-77
2023/04/24 15:25:06;;;;;;;6.80;3.28;;;;;;;;;;6230443;28;20201;-77
2023/04/24 15:28:09;;;;;;;5.15;2.90;;;;;;;;;;6229616;28;20495;-76
2023/04/24 15:31:11;;;;;;;6.28;3.25;;;;;;;;;;6233557;28;20049;-78
2023/04/24 15:34:12;;;;;;;6.53;3.67;;;;;;;;;;6225222;28;20162;-80
2023/04/24 15:37:14;;;;;;;4.50;3.40;;;;;;;;;;6221854;28;20053;-80
2023/04/24 15:40:16;;;;;;;7.65;3.38;;;;;;;;;;6228103;28;20045;-80
2023/04/24 15:43:17;;;;;;;5.57;4.18;;;;;;;;;;6226930;28;20131;-80
2023/04/24 15:46:19;;;;;;;4.47;3.28;;;;;;;;;;6226925;28;20052;-79
2023/04/24 15:49:21;;;;;;;6.93;3.85;;;;;;;;;;6235704;28;20128;-80
2023/04/24 15:52:22;;;;;;;5.57;3.78;;;;;;;;;;6232920;28;20041;-79
2023/04/24 15:55:24;;;;;;;8.18;3.97;;;;;;;;;;6232334;28;20041;-79
2023/04/24 15:58:26;;;;;;;8.02;4.10;;;;;;;;;;6237451;28;20055;-80
2023/04/24 16:01:27;;;;;;;7.63;4.03;;;;;;;;;;6240151;28;20124;-80
2023/04/24 16:04:29;;;;;;;6.50;3.90;;;;;;;;;;6252111;28;20045;-80
2023/04/24 16:07:32;;;;;;;9.15;4.40;;;;;;;;;;6235632;28;20045;-79
2023/04/24 16:10:34;;;;;;;7.38;4.00;;;;;;;;;;6237336;28;20426;-79
2023/04/24 16:13:35;;;;;;;8.75;4.10;;;;;;;;;;6252891;28;20053;-80
2023/04/24 16:16:37;;;;;;;6.65;3.70;;;;;;;;;;6241140;28;20053;-79
2023/04/24 16:19:39;;;;;;;6.68;3.92;;;;;;;;;;6236309;28;20071;-80
2023/04/24 16:22:41;;;;;;;7.13;3.70;;;;;;;;;;6229314;28;20045;-80
2023/04/24 16:25:43;;;;;;;10.48;3.70;;;;;;;;;;6234954;28;20045;-79
2023/04/24 16:28:44;;;;;;;6.85;3.80;;;;;;;;;;6234372;28;20038;-79
2023/04/24 16:31:49;;;;;;;6.45;3.88;;;;;;;;;;6214846;28;20060;-79
2023/04/24 16:34:51;;;;;;;7.22;3.70;;;;;;;;;;6249938;28;20052;-80
2023/04/24 16:37:52;;;;;;;6.50;4.10;;;;;;;;;;6252287;28;20049;-79
2023/04/24 16:40:54;;;;;;;10.95;5.47;;;;;;;;;;6237965;28;20063;-80
2023/04/24 16:43:56;;;;;;;9.18;5.03;;;;;;;;;;6235912;28;20055;-79
2023/04/24 16:46:57;;;;;;;8.50;4.90;;;;;;;;;;6230934;28;20041;-79
2023/04/24 16:49:59;;;;;;;7.07;4.40;;;;;;;;;;6230815;28;20721;-80
2023/04/24 16:53:01;;;;;;;9.80;5.18;;;;;;;;;;6233202;28;20041;-80
2023/04/24 16:56:03;;;;;;;7.97;5.18;;;;;;;;;;6246897;28;20141;-79
2023/04/24 16:59:05;;;;;;;8.57;4.95;;;;;;;;;;6231875;28;20069;-79
2023/04/24 17:02:08;;;;;;;9.57;5.35;;;;;;;;;;6244969;28;20053;-79
2023/04/24 17:05:09;;;;;;;12.47;4.77;;;;;;;;;;6233371;28;20049;-79
2023/04/24 17:08:11;;;;;;;8.57;4.57;;;;;;;;;;6238190;28;20140;-79
2023/04/24 17:11:13;;;;;;;9.68;4.72;;;;;;;;;;6231263;28;20106;-79
2023/04/24 17:14:15;;;;;;;7.65;4.22;;;;;;;;;;6236884;28;20041;-80
2023/04/24 17:17:18;;;;;;;6.10;4.88;;;;;;;;;;6238865;28;20699;-80
2023/04/24 17:20:20;;;;;;;8.27;4.72;;;;;;;;;;6256946;28;20049;-80
2023/04/24 17:23:24;;;;;;;5.60;4.45;;;;;;;;;;6229542;28;20048;-78
2023/04/24 17:26:27;;;;;;;8.18;4.57;;;;;;;;;;6239551;28;20188;-78
2023/04/24 17:29:29;;;;;;;10.23;4.50;;;;;;;;;;6241101;28;20041;-77
2023/04/24 17:32:30;;;;;;;6.85;4.43;;;;;;;;;;6235543;28;20084;-80
2023/04/24 17:35:32;;;;;;;6.97;4.05;;;;;;;;;;6241420;28;20136;-79
2023/04/24 17:38:34;;;;;;;8.18;4.45;;;;;;;;;;6239806;28;20384;-78
2023/04/24 17:41:36;;;;;;;7.30;4.35;;;;;;;;;;6223039;28;20045;-79
2023/04/24 17:44:38;;;;;;;8.48;4.47;;;;;;;;;;6265079;28;20120;-78
2023/04/24 17:47:39;;;;;;;6.70;4.10;;;;;;;;;;6224340;28;20055;-78
2023/04/24 17:50:42;;;;;;;8.35;4.50;;;;;;;;;;6261817;28;20050;-78
2023/04/24 17:53:44;;;;;;;6.60;3.97;;;;;;;;;;6250380;28;20056;-76
2023/04/24 17:56:46;;;;;;;7.88;4.05;;;;;;;;;;6227524;28;20041;-79
2023/04/24 17:59:48;;;;;;;8.65;4.60;;;;;;;;;;6249623;28;20045;-81
2023/04/24 18:02:52;;;;;;;8.35;4.32;;;;;;;;;;6252297;28;20042;-78
2023/04/24 18:05:54;;;;;;;8.50;4.43;;;;;;;;;;6229816;28;20069;-80
2023/04/24 18:08:55;;;;;;;8.90;4.47;;;;;;;;;;6247803;28;20053;-78
2023/04/24 18:11:57;;;;;;;10.60;4.28;;;;;;;;;;6233587;28;20041;-78
2023/04/24 18:14:59;;;;;;;8.48;4.65;;;;;;;;;;6232571;28;20049;-79
2023/04/24 18:18:16;;;;;;;13.13;4.32;;;;;;;;;;6232492;28;20098;-79
2023/04/24 18:21:18;;;;;;;8.95;4.30;;;;;;;;;;6252012;28;20601;-80